San Nicolas, Argentina
Current Conditions -  °F | °C
As of 7:00 AM on Sunday 25 Jan 2015 (Local Time) from SAAR Reporting Station
Clear Clear  
Wind Chill: 21°   Ceiling: Unl
Heat Index: 21°   Visibility: 5mi
Dew Point: 20°   Wind: 3mph
Humidity: 94%   Direction: 180°S
Pressure: 29.83"   Gusts: NA
Location:  33.32°S, 60.22°W
Report Text: SAAR 251000Z 18003KT 8000 NSC 21/20 Q1010
Loading
Personal Weather Stations






























Interactive Weather Map New forecast layout! Learn more

10-Day Weather Forecast

Advertisements
Track Severe Weather on mobile